createdAt,value
2018-06-22T00:02:57.119Z,3.36
2018-06-22T00:12:52.806Z,3.36
2018-06-22T00:22:46.365Z,3.35
2018-06-22T00:32:45.346Z,3.36
2018-06-22T00:42:44.258Z,3.35
2018-06-22T00:52:42.346Z,3.35
2018-06-22T01:02:37.640Z,3.35
2018-06-22T01:12:34.252Z,3.34
2018-06-22T01:22:33.803Z,3.35
2018-06-22T01:32:31.742Z,3.34
2018-06-22T01:42:28.527Z,3.34
2018-06-22T01:52:22.445Z,3.34
2018-06-22T02:02:21.747Z,3.34
2018-06-22T02:12:19.201Z,3.34
2018-06-22T02:22:16.667Z,3.34
2018-06-22T02:32:15.435Z,3.34
2018-06-22T02:42:11.502Z,3.34
2018-06-22T02:52:09.652Z,3.34
2018-06-22T03:02:07.019Z,3.34
2018-06-22T03:12:03.188Z,3.34
2018-06-22T03:22:01.517Z,3.34
2018-06-22T03:31:58.881Z,3.34
2018-06-22T03:41:56.995Z,3.34
2018-06-22T03:51:54.278Z,3.34
2018-06-22T04:01:52.020Z,3.34
2018-06-22T04:11:51.169Z,3.34
2018-06-22T04:21:49.261Z,3.34
2018-06-22T04:31:45.399Z,3.34
2018-06-22T04:41:42.422Z,3.34
2018-06-22T04:51:41.475Z,3.36
2018-06-22T05:01:38.547Z,3.34
2018-06-22T05:11:34.126Z,3.34
2018-06-22T05:21:32.617Z,3.35
2018-06-22T05:31:30.280Z,3.34
2018-06-22T05:41:26.182Z,3.35
2018-06-22T05:51:23.182Z,3.35
2018-06-22T06:01:18.473Z,3.34
2018-06-22T06:10:59.053Z,3.35
2018-06-22T06:20:57.601Z,3.36
2018-06-22T06:30:55.183Z,3.35
2018-06-22T06:40:52.606Z,3.36
2018-06-22T06:50:51.373Z,3.36
2018-06-22T07:00:48.540Z,3.36
2018-06-22T07:10:45.826Z,3.36
2018-06-22T07:20:43.438Z,3.38
2018-06-22T07:30:42.077Z,3.38
2018-06-22T07:40:37.477Z,3.40
2018-06-22T07:50:33.850Z,3.40
2018-06-22T08:00:30.950Z,3.40
2018-06-22T08:10:27.049Z,3.43
2018-06-22T08:20:24.473Z,3.42
2018-06-22T08:30:21.525Z,3.42
2018-06-22T08:40:17.426Z,3.43
2018-06-22T08:50:15.924Z,3.42
2018-06-22T09:00:12.225Z,3.42
2018-06-22T09:10:07.509Z,3.41
2018-06-22T09:20:04.360Z,3.41
2018-06-22T09:30:03.120Z,3.43
2018-06-22T09:40:00.675Z,3.44
2018-06-22T09:49:57.008Z,3.42
2018-06-22T09:59:52.031Z,3.42
2018-06-22T10:09:49.090Z,3.42
2018-06-22T10:19:46.280Z,3.42
2018-06-22T10:29:41.718Z,3.42
2018-06-22T10:39:40.267Z,3.41
2018-06-22T10:49:36.681Z,3.42
2018-06-22T10:59:36.260Z,3.42
2018-06-22T11:09:31.453Z,3.42
2018-06-22T11:19:29.387Z,3.42
2018-06-22T11:29:27.556Z,3.41
2018-06-22T11:39:22.194Z,3.42
2018-06-22T11:49:19.716Z,3.41
2018-06-22T11:59:15.693Z,3.41
2018-06-22T12:09:03.446Z,3.42
2018-06-22T12:19:02.038Z,3.42
2018-06-22T12:28:57.092Z,3.42
2018-06-22T12:38:47.902Z,3.42
2018-06-22T12:48:47.033Z,3.42
2018-06-22T12:58:41.499Z,3.42
2018-06-22T13:08:35.422Z,3.41
2018-06-22T13:18:31.360Z,3.41
2018-06-22T13:28:29.540Z,3.41
2018-06-22T13:38:17.877Z,3.42
2018-06-22T13:48:07.841Z,3.41
2018-06-22T13:57:59.822Z,3.41
2018-06-22T14:07:54.445Z,3.41
2018-06-22T14:17:48.672Z,3.41
2018-06-22T14:27:43.016Z,3.42
2018-06-22T14:37:37.560Z,3.42
2018-06-22T14:47:30.789Z,3.41
2018-06-22T14:57:20.648Z,3.41
2018-06-22T15:07:03.987Z,3.41
2018-06-22T15:16:58.661Z,3.42
2018-06-22T15:26:54.720Z,3.42
2018-06-22T15:36:51.968Z,3.42
2018-06-22T15:46:47.770Z,3.42
2018-06-22T15:56:41.146Z,3.41
2018-06-22T16:06:33.906Z,3.43
2018-06-22T16:16:29.189Z,3.42
2018-06-22T16:26:26.422Z,3.42
2018-06-22T16:36:21.036Z,3.44
2018-06-22T16:46:05.251Z,3.43
2018-06-22T16:56:01.816Z,3.43
2018-06-22T17:05:56.483Z,3.43
2018-06-22T17:15:38.241Z,3.42
2018-06-22T17:25:25.813Z,3.43
2018-06-22T17:35:12.477Z,3.43
2018-06-22T17:44:53.426Z,3.43
2018-06-22T17:54:44.682Z,3.42
2018-06-22T18:04:41.561Z,3.42
2018-06-22T18:14:35.014Z,3.43
2018-06-22T18:24:28.901Z,3.42
2018-06-22T18:34:22.025Z,3.42
2018-06-22T18:44:14.332Z,3.41
2018-06-22T18:54:05.899Z,3.41
2018-06-22T19:03:57.940Z,3.40
2018-06-22T19:13:48.565Z,3.40
2018-06-22T19:23:41.815Z,3.40
2018-06-22T19:33:33.778Z,3.40
2018-06-22T19:43:25.954Z,3.40
2018-06-22T19:53:14.721Z,3.39
2018-06-22T20:03:09.472Z,3.39
2018-06-22T20:13:02.679Z,3.39
2018-06-22T20:22:56.817Z,3.39
2018-06-22T20:32:50.546Z,3.39
2018-06-22T20:42:37.704Z,3.39
2018-06-22T20:52:31.084Z,3.39
2018-06-22T21:02:23.697Z,3.38
2018-06-22T21:12:26.251Z,3.38
2018-06-22T21:22:02.940Z,3.38
2018-06-22T21:31:54.716Z,3.38
2018-06-22T21:41:49.608Z,3.38
2018-06-22T21:51:45.126Z,3.38
2018-06-22T22:01:39.306Z,3.37
2018-06-22T22:11:36.593Z,3.37
2018-06-22T22:21:33.444Z,3.37
2018-06-22T22:31:29.283Z,3.37
2018-06-22T22:41:23.753Z,3.37
2018-06-22T22:51:18.680Z,3.37
2018-06-22T23:01:16.039Z,3.37
2018-06-22T23:11:10.721Z,3.37
2018-06-22T23:21:08.590Z,3.37
2018-06-22T23:31:04.378Z,3.37
2018-06-22T23:41:00.848Z,3.36
2018-06-22T23:50:57.095Z,3.36
